Time;durP1;ratioP1;P1;durP2;ratioP2;P2;SDS_P1;SDS_P2;PMS_P1;PMS_P2;Temp;Humidity;BMP_temperature;BMP_pressure;BME280_temperature;BME280_humidity;BME280_pressure;Samples;Min_cycle;Max_cycle;Signal;HPM_P1;HPM_P2
2022/05/15 00:01:35;;;;;;;;;;;;;;;23.19;45.27;95937.44;10338149;28;1823;-60
2022/05/15 00:06:36;;;;;;;;;;;;;;;23.19;44.87;95938.25;10354836;28;1869;-59
2022/05/15 00:11:36;;;;;;;;;;;;;;;23.19;45.29;95927.66;10341116;28;1973;-60
2022/05/15 00:16:36;;;;;;;;;;;;;;;23.18;45.12;95926.09;10340417;28;1841;-63
2022/05/15 00:21:37;;;;;;;;;;;;;;;23.18;45.18;95928.75;10330392;28;2409;-65
2022/05/15 00:26:37;;;;;;;;;;;;;;;23.18;45.02;95925.31;10340469;28;1937;-64
2022/05/15 00:31:37;;;;;;;;;;;;;;;23.19;44.94;95924.22;10348587;28;1985;-62
2022/05/15 00:36:38;;;;;;;;;;;;;;;23.18;44.84;95920.81;10338555;28;1897;-59
2022/05/15 00:41:38;;;;;;;;;;;;;;;23.18;45.05;95918.19;10356687;28;1996;-58
2022/05/15 00:46:39;;;;;;;;;;;;;;;23.18;44.65;95918.19;10342881;28;1918;-60
2022/05/15 00:51:48;;;;;;;;;;;;;;;23.18;44.78;95914.75;10340531;28;1984;-62
2022/05/15 00:56:50;;;;;;;;;;;;;;;23.18;44.78;95915.53;10323520;28;1918;-62
2022/05/15 01:01:51;;;;;;;;;;;;;;;23.18;44.88;95914.75;10352441;28;1887;-62
2022/05/15 01:06:51;;;;;;;;;;;;;;;23.18;44.87;95912.09;10357624;28;1906;-60
2022/05/15 01:11:52;;;;;;;;;;;;;;;23.17;44.87;95913.16;10351984;28;1952;-59
2022/05/15 01:16:53;;;;;;;;;;;;;;;23.16;44.80;95920.28;10335748;28;1876;-59
2022/05/15 01:21:58;;;;;;;;;;;;;;;23.17;44.75;95918.44;10353642;28;2055;-63
2022/05/15 01:27:00;;;;;;;;;;;;;;;23.17;44.72;95915.78;10354335;28;1930;-58
2022/05/15 01:32:03;;;;;;;;;;;;;;;23.17;44.80;95916.59;10334389;28;1987;-60
2022/05/15 01:37:04;;;;;;;;;;;;;;;23.17;44.70;95913.94;10348987;28;1826;-60
2022/05/15 01:42:05;;;;;;;;;;;;;;;23.17;44.51;95921.09;10346836;28;1972;-60
2022/05/15 01:47:05;;;;;;;;;;;;;;;23.16;44.26;95908.94;10355019;28;1922;-61
2022/05/15 01:52:06;;;;;;;;;;;;;;;23.15;44.53;95916.09;10339404;28;1906;-63
2022/05/15 01:57:06;;;;;;;;;;;;;;;23.16;44.37;95906.31;10307165;28;2099;-61
2022/05/15 02:02:07;;;;;;;;;;;;;;;23.15;44.29;95904.72;10336582;28;1767;-62
2022/05/15 02:07:08;;;;;;;;;;;;;;;23.15;44.11;95904.72;10354476;28;1796;-62
2022/05/15 02:12:09;;;;;;;;;;;;;;;23.14;44.06;95900.50;10336466;28;1902;-59
2022/05/15 02:17:09;;;;;;;;;;;;;;;23.14;44.17;95898.63;10331408;28;1741;-62
2022/05/15 02:22:12;;;;;;;;;;;;;;;23.15;44.03;95899.44;10345729;28;1859;-59
2022/05/15 02:27:12;;;;;;;;;;;;;;;23.14;43.70;95896.00;10329599;28;1830;-59
2022/05/15 02:32:13;;;;;;;;;;;;;;;23.14;43.77;95892.59;10333024;28;1910;-62
2022/05/15 02:37:13;;;;;;;;;;;;;;;23.14;43.77;95892.59;10344526;28;1864;-60
2022/05/15 02:42:14;;;;;;;;;;;;;;;23.12;43.73;95884.16;10353553;28;1803;-60
2022/05/15 02:47:15;;;;;;;;;;;;;;;23.13;43.57;95886.50;10354814;28;1722;-62
2022/05/15 02:52:16;;;;;;;;;;;;;;;23.13;43.75;95891.00;10345828;28;1902;-59
2022/05/15 02:57:16;;;;;;;;;;;;;;;23.12;43.57;95892.84;10333418;28;1855;-63
2022/05/15 03:02:16;;;;;;;;;;;;;;;23.13;43.67;95888.34;10350225;28;1808;-63
2022/05/15 03:07:17;;;;;;;;;;;;;;;23.12;43.43;95884.91;10352543;28;1777;-57
2022/05/15 03:12:21;;;;;;;;;;;;;;;23.12;43.54;95884.16;10345942;28;1975;-59
2022/05/15 03:17:22;;;;;;;;;;;;;;;23.12;43.51;95892.09;10346460;28;1832;-61
2022/05/15 03:22:24;;;;;;;;;;;;;;;23.11;43.36;95898.44;10353458;28;1867;-63
2022/05/15 03:27:25;;;;;;;;;;;;;;;23.11;43.27;95893.13;10357117;28;1867;-59
2022/05/15 03:32:27;;;;;;;;;;;;;;;23.10;43.25;95888.94;10341548;28;1914;-60
2022/05/15 03:37:29;;;;;;;;;;;;;;;23.10;43.35;95891.59;10343485;28;1861;-61
2022/05/15 03:42:29;;;;;;;;;;;;;;;23.10;43.44;95888.94;10357067;28;1816;-62
2022/05/15 03:47:30;;;;;;;;;;;;;;;23.09;43.47;95892.63;10358406;28;1832;-62
2022/05/15 03:52:36;;;;;;;;;;;;;;;23.10;43.15;95891.59;10343143;28;1919;-59
2022/05/15 03:57:38;;;;;;;;;;;;;;;23.10;43.39;95896.88;10358760;28;1895;-62
2022/05/15 04:02:39;;;;;;;;;;;;;;;23.09;43.36;95890.00;10344786;28;1893;-60
2022/05/15 04:07:43;;;;;;;;;;;;;;;23.09;43.21;95890.00;10358752;28;1838;-63
2022/05/15 04:12:44;;;;;;;;;;;;;;;23.09;43.16;95890.00;10358440;28;2035;-59
2022/05/15 04:17:45;;;;;;;;;;;;;;;23.09;43.24;95890.00;10359475;28;2070;-62
2022/05/15 04:22:45;;;;;;;;;;;;;;;23.08;43.32;95883.16;10353456;28;1981;-61
2022/05/15 04:27:46;;;;;;;;;;;;;;;23.08;43.32;95881.28;10358369;28;2011;-62
2022/05/15 04:32:46;;;;;;;;;;;;;;;23.09;43.30;95890.78;10341355;28;1940;-63
2022/05/15 04:37:46;;;;;;;;;;;;;;;23.08;43.05;95883.16;10338591;28;1968;-63
2022/05/15 04:42:47;;;;;;;;;;;;;;;23.08;43.19;95893.72;10339484;28;1929;-62
2022/05/15 04:47:47;;;;;;;;;;;;;;;23.08;42.89;95901.66;10351861;28;2011;-58
2022/05/15 04:52:48;;;;;;;;;;;;;;;23.07;43.22;95903.50;10355112;28;1971;-58
2022/05/15 04:57:49;;;;;;;;;;;;;;;23.09;43.35;95900.56;10337996;28;2008;-61
2022/05/15 05:02:50;;;;;;;;;;;;;;;23.05;42.99;95910.16;10352070;28;1990;-62
2022/05/15 05:07:50;;;;;;;;;;;;;;;23.03;42.61;95917.56;10355177;28;1919;-62
2022/05/15 05:12:50;;;;;;;;;;;;;;;23.01;42.29;95914.44;10355256;28;1979;-61
2022/05/15 05:17:55;;;;;;;;;;;;;;;23.00;42.19;95923.44;10355687;28;1948;-58
2022/05/15 05:22:57;;;;;;;;;;;;;;;23.00;42.36;95923.44;10369177;28;2093;-59
2022/05/15 05:27:57;;;;;;;;;;;;;;;22.99;42.25;95924.50;10367211;28;1989;-62
2022/05/15 05:32:57;;;;;;;;;;;;;;;22.98;42.25;95925.59;10333378;28;1951;-61
2022/05/15 05:37:58;;;;;;;;;;;;;;;22.98;42.50;95926.34;10331859;28;1936;-60
2022/05/15 05:42:58;;;;;;;;;;;;;;;22.96;42.45;95933.00;10335358;28;2032;-61
2022/05/15 05:47:59;;;;;;;;;;;;;;;22.98;42.15;95931.66;10339927;28;1886;-59
2022/05/15 05:53:00;;;;;;;;;;;;;;;23.00;42.97;95929.50;10351661;28;1977;-62
2022/05/15 05:58:00;;;;;;;;;;;;;;;23.04;42.57;95935.03;10354304;28;1939;-59
2022/05/15 06:08:19;;;;;;;;;;;;;;;23.05;42.78;95939.22;10334846;28;1989;-61
2022/05/15 06:13:20;;;;;;;;;;;;;;;23.06;42.80;95935.53;10349633;28;1987;-61
2022/05/15 06:18:20;;;;;;;;;;;;;;;23.07;42.79;95939.72;10352642;28;1966;-61
2022/05/15 06:23:21;;;;;;;;;;;;;;;23.06;42.76;95944.22;10350117;28;1967;-62
2022/05/15 06:28:21;;;;;;;;;;;;;;;23.06;42.82;95946.09;10352791;28;1878;-61
2022/05/15 06:33:21;;;;;;;;;;;;;;;23.06;42.89;95943.47;10351723;28;1970;-64
2022/05/15 06:38:22;;;;;;;;;;;;;;;23.07;42.96;95956.38;10348102;28;2033;-63
2022/05/15 06:43:23;;;;;;;;;;;;;;;23.07;42.90;95951.09;10347179;28;1984;-61
2022/05/15 06:48:24;;;;;;;;;;;;;;;22.95;42.17;95947.28;10327091;28;1905;-63
2022/05/15 06:53:25;;;;;;;;;;;;;;;22.80;41.83;95944.81;10325835;28;2110;-62
2022/05/15 06:58:25;;;;;;;;;;;;;;;22.61;40.46;95944.78;10337869;28;1950;-62
2022/05/15 07:03:27;;;;;;;;;;;;;;;22.39;40.88;95942.63;10336981;28;1921;-62
2022/05/15 07:08:27;;;;;;;;;;;;;;;22.39;40.89;95944.47;10329365;28;1929;-60
2022/05/15 07:13:28;;;;;;;;;;;;;;;22.23;40.53;95949.13;10333789;28;1971;-61
2022/05/15 07:18:28;;;;;;;;;;;;;;;22.17;40.71;95949.44;10331716;28;1913;-62
2022/05/15 07:23:28;;;;;;;;;;;;;;;22.26;40.83;95945.91;10344424;28;1978;-60
2022/05/15 07:28:29;;;;;;;;;;;;;;;22.40;41.36;95935.50;10335826;28;1957;-59
2022/05/15 07:33:29;;;;;;;;;;;;;;;22.50;41.58;95932.75;10337497;28;1972;-59
2022/05/15 07:38:29;;;;;;;;;;;;;;;22.64;41.43;95934.47;10350757;28;1916;-61
2022/05/15 07:43:30;;;;;;;;;;;;;;;22.77;41.44;95929.56;10321771;28;1932;-62
2022/05/15 07:48:32;;;;;;;;;;;;;;;22.82;41.89;95932.13;10343158;28;1963;-61
2022/05/15 07:53:33;;;;;;;;;;;;;;;22.83;41.92;95918.63;10345491;28;1980;-62
2022/05/15 07:58:33;;;;;;;;;;;;;;;22.86;41.71;95919.91;10346326;28;1974;-61
2022/05/15 08:03:38;;;;;;;;;;;;;;;22.87;41.97;95921.50;10338311;28;1984;-59
2022/05/15 08:08:38;;;;;;;;;;;;;;;22.87;41.72;95924.13;10351176;28;2049;-61
2022/05/15 08:13:39;;;;;;;;;;;;;;;22.87;41.67;95918.84;10343247;28;1902;-61
2022/05/15 08:23:59;;;;;;;;;;;;;;;22.87;41.49;95917.00;10331703;28;1983;-59
2022/05/15 08:29:00;;;;;;;;;;;;;;;22.80;39.81;95913.13;10348324;28;2435;-60
2022/05/15 08:34:01;;;;;;;;;;;;;;;22.72;39.45;95916.38;10346432;28;2339;-58
2022/05/15 08:39:03;;;;;;;;;;;;;;;22.67;39.12;95918.03;10339400;28;1953;-56
2022/05/15 08:44:10;;;;;;;;;;;;;;;22.67;38.93;95925.94;10340660;28;1892;-59
2022/05/15 08:49:12;;;;;;;;;;;;;;;22.67;39.60;95931.22;10345649;28;1978;-60
2022/05/15 08:54:12;;;;;;;;;;;;;;;22.68;39.25;95934.66;10348725;28;1910;-61
2022/05/15 08:59:20;;;;;;;;;;;;;;;22.77;39.95;95937.47;10347933;28;1931;-56
2022/05/15 09:04:21;;;;;;;;;;;;;;;22.82;40.59;95938.19;10354417;28;2082;-56
2022/05/15 09:09:40;;;;;;;;;;;;;;;22.84;40.96;95930.78;10355580;28;2003;-60
2022/05/15 09:14:40;;;;;;;;;;;;;;;22.86;40.69;95938.41;10346131;28;1975;-60
2022/05/15 09:19:42;;;;;;;;;;;;;;;22.88;40.97;95926.50;10348572;28;1962;-59
2022/05/15 09:24:51;;;;;;;;;;;;;;;22.89;40.90;95919.34;10344667;28;1917;-60
2022/05/15 09:29:52;;;;;;;;;;;;;;;22.92;41.14;95916.13;10350919;28;1943;-57
2022/05/15 09:34:53;;;;;;;;;;;;;;;22.93;41.21;95930.94;10354768;28;1925;-59
2022/05/15 09:40:02;;;;;;;;;;;;;;;22.94;41.51;95932.50;10330362;28;1846;-59
2022/05/15 09:45:07;;;;;;;;;;;;;;;22.95;41.37;95936.72;10354531;28;1979;-56
2022/05/15 09:50:30;;;;;;;;;;;;;;;22.95;41.14;95932.22;10340082;28;1860;-58
2022/05/15 09:55:30;;;;;;;;;;;;;;;22.96;41.46;95927.72;10330555;28;1926;-59
2022/05/15 10:00:32;;;;;;;;;;;;;;;22.97;41.25;95924.00;10352174;28;1844;-60
2022/05/15 10:05:33;;;;;;;;;;;;;;;22.97;41.60;95921.34;10348384;28;1849;-59
2022/05/15 10:10:35;;;;;;;;;;;;;;;22.98;41.64;95920.31;10338797;28;1813;-59
2022/05/15 10:15:36;;;;;;;;;;;;;;;22.98;41.61;95909.72;10326403;28;1922;-57
2022/05/15 10:20:38;;;;;;;;;;;;;;;22.99;41.54;95906.00;10353066;28;1820;-62
2022/05/15 10:25:42;;;;;;;;;;;;;;;23.01;41.47;95895.94;10333324;28;1889;-58
2022/05/15 10:30:47;;;;;;;;;;;;;;;23.00;41.40;95897.00;10352992;28;1879;-59
2022/05/15 10:35:56;;;;;;;;;;;;;;;23.00;41.87;95886.44;10313158;28;1980;-62
2022/05/15 10:41:05;;;;;;;;;;;;;;;23.02;41.74;95890.34;10320689;28;1867;-59
2022/05/15 10:46:10;;;;;;;;;;;;;;;23.02;41.86;95887.69;10337034;28;1780;-61
2022/05/15 10:51:16;;;;;;;;;;;;;;;23.02;41.87;95879.00;10350653;28;1777;-60
2022/05/15 11:01:45;;;;;;;;;;;;;;;23.04;42.02;95876.88;10351121;28;1816;-60
2022/05/15 11:06:48;;;;;;;;;;;;;;;23.04;42.15;95869.69;10334204;28;1746;-60
2022/05/15 11:11:55;;;;;;;;;;;;;;;23.05;41.97;95866.00;10323421;28;1847;-61
2022/05/15 11:16:55;;;;;;;;;;;;;;;23.05;42.18;95866.00;10332673;28;1917;-62
2022/05/15 11:22:03;;;;;;;;;;;;;;;23.05;41.97;95858.06;10332100;28;1819;-60
2022/05/15 11:27:09;;;;;;;;;;;;;;;23.06;42.07;95849.03;10335765;28;1841;-60
2022/05/15 11:32:27;;;;;;;;;;;;;;;23.07;42.08;95855.91;10352523;28;1942;-61
2022/05/15 11:37:37;;;;;;;;;;;;;;;23.09;42.00;95852.97;10336758;28;1786;-61
2022/05/15 11:42:37;;;;;;;;;;;;;;;23.09;42.20;95850.34;10344531;28;1802;-60
2022/05/15 11:47:39;;;;;;;;;;;;;;;23.09;42.21;95840.56;10334986;28;1810;-57
2022/05/15 11:53:00;;;;;;;;;;;;;;;23.09;42.25;95831.81;10358611;28;1978;-61
2022/05/15 11:58:34;;;;;;;;;;;;;;;23.11;42.00;95837.63;10346103;28;1723;-61
2022/05/15 12:03:38;;;;;;;;;;;;;;;23.10;42.22;95828.13;10335025;28;1792;-62
2022/05/15 12:08:39;;;;;;;;;;;;;;;23.10;42.41;95814.91;10337036;28;1753;-59
2022/05/15 12:13:40;;;;;;;;;;;;;;;23.10;42.38;95810.38;10320745;28;1993;-61
2022/05/15 12:18:40;;;;;;;;;;;;;;;23.11;42.43;95804.03;10344433;28;1813;-58
2022/05/15 12:24:27;;;;;;;;;;;;;;;23.12;42.53;95807.47;10334719;28;1876;-58
2022/05/15 12:29:24;;;;;;;;;;;;;;;23.13;42.21;95815.09;10337365;28;1828;-57
2022/05/15 12:34:28;;;;;;;;;;;;;;;23.13;42.37;95809.03;10352823;28;1984;-59
2022/05/15 12:39:30;;;;;;;;;;;;;;;23.11;42.65;95800.59;10339168;28;1859;-58
2022/05/15 12:44:31;;;;;;;;;;;;;;;23.14;42.65;95800.03;10339079;28;1774;-59
2022/05/15 12:49:35;;;;;;;;;;;;;;;23.14;42.67;95794.75;10351369;28;1772;-59
2022/05/15 12:54:35;;;;;;;;;;;;;;;23.13;42.57;95790.50;10342047;28;1979;-59
2022/05/15 12:59:40;;;;;;;;;;;;;;;23.14;42.77;95789.47;10357711;28;1799;-60
2022/05/15 13:04:45;;;;;;;;;;;;;;;23.14;42.84;95781.53;10373794;28;1859;-61
2022/05/15 13:09:49;;;;;;;;;;;;;;;23.13;42.62;95782.59;10353950;28;1844;-59
2022/05/15 13:14:50;;;;;;;;;;;;;;;23.15;42.47;95780.44;10342934;28;1914;-61
2022/05/15 13:19:51;;;;;;;;;;;;;;;23.12;41.79;95773.84;10356342;28;1983;-63
2022/05/15 13:24:53;;;;;;;;;;;;;;;23.13;41.92;95761.44;10359403;28;1872;-61
2022/05/15 13:29:54;;;;;;;;;;;;;;;23.14;41.79;95758.50;10328923;28;1881;-64
2022/05/15 13:34:54;;;;;;;;;;;;;;;23.15;41.63;95761.91;10324366;28;2209;-61
2022/05/15 13:45:18;;;;;;;;;;;;;;;23.14;41.18;95750.56;10335004;28;1876;-61
2022/05/15 13:50:42;;;;;;;;;;;;;;;23.12;41.46;95739.47;10342154;28;1804;-62
2022/05/15 13:55:42;;;;;;;;;;;;;;;23.12;41.56;95744.00;10362807;28;1984;-63
2022/05/15 14:01:00;;;;;;;;;;;;;;;23.13;41.19;95737.63;10358028;28;2024;-61
2022/05/15 14:06:13;;;;;;;;;;;;;;;23.09;41.19;95736.63;10347294;28;1934;-63
2022/05/15 14:11:13;;;;;;;;;;;;;;;23.10;41.22;95736.34;10334752;28;1848;-63
2022/05/15 14:16:15;;;;;;;;;;;;;;;23.13;40.91;95732.34;10334092;28;1910;-60
2022/05/15 14:21:23;;;;;;;;;;;;;;;23.12;40.75;95730.78;10321487;28;1828;-63
2022/05/15 14:26:23;;;;;;;;;;;;;;;23.12;40.65;95730.78;10333132;28;1866;-63
2022/05/15 14:31:24;;;;;;;;;;;;;;;23.11;41.10;95723.91;10333019;28;1871;-64
2022/05/15 14:36:25;;;;;;;;;;;;;;;23.13;41.24;95721.75;10330126;28;1975;-61
2022/05/15 14:41:26;;;;;;;;;;;;;;;23.12;40.92;95731.56;10333905;28;1869;-63
2022/05/15 14:46:27;;;;;;;;;;;;;;;23.12;41.19;95722.84;10336637;28;2261;-63
2022/05/15 14:51:27;;;;;;;;;;;;;;;23.15;41.42;95714.31;10319979;28;1875;-63
2022/05/15 14:56:28;;;;;;;;;;;;;;;23.15;41.25;95711.69;10347593;28;1906;-63
2022/05/15 15:01:29;;;;;;;;;;;;;;;23.17;41.23;95709.53;10339775;28;2106;-61
2022/05/15 15:06:29;;;;;;;;;;;;;;;23.14;41.40;95712.78;10363793;28;1832;-64
2022/05/15 15:11:30;;;;;;;;;;;;;;;23.18;41.44;95697.91;10349089;28;1872;-65
2022/05/15 15:16:32;;;;;;;;;;;;;;;23.20;41.73;95701.03;10353219;28;1975;-65
2022/05/15 15:21:32;;;;;;;;;;;;;;;23.21;41.68;95700.72;10349186;28;1812;-62
2022/05/15 15:26:33;;;;;;;;;;;;;;;23.22;41.58;95698.88;10368008;28;1828;-63
2022/05/15 15:31:33;;;;;;;;;;;;;;;23.18;41.66;95696.03;10347876;28;1824;-64
2022/05/15 15:36:34;;;;;;;;;;;;;;;23.23;41.66;95695.16;10350043;28;1906;-61
2022/05/15 15:41:35;;;;;;;;;;;;;;;23.20;41.51;95693.09;10337823;28;1770;-61
2022/05/15 15:46:36;;;;;;;;;;;;;;;23.20;41.34;95691.25;10328714;28;1821;-63
2022/05/15 15:51:37;;;;;;;;;;;;;;;23.21;41.71;95692.00;10351717;28;1813;-61
2022/05/15 15:56:38;;;;;;;;;;;;;;;23.29;41.50;95691.34;10333686;28;2303;-60
2022/05/15 16:01:39;;;;;;;;;;;;;;;23.26;41.59;95684.78;10337212;28;1822;-62
2022/05/15 16:06:39;;;;;;;;;;;;;;;23.22;40.88;95675.09;10334793;28;1778;-60
2022/05/15 16:11:49;;;;;;;;;;;;;;;23.22;41.00;95672.44;10349383;28;1855;-58
2022/05/15 16:16:50;;;;;;;;;;;;;;;23.25;40.96;95672.63;10341223;28;2293;-60
2022/05/15 16:21:52;;;;;;;;;;;;;;;23.20;41.05;95670.09;10353901;28;1808;-60
2022/05/15 16:26:53;;;;;;;;;;;;;;;23.22;41.00;95667.16;10332463;28;1852;-60
2022/05/15 16:31:53;;;;;;;;;;;;;;;23.22;41.27;95664.50;10330184;28;1819;-59
2022/05/15 16:36:54;;;;;;;;;;;;;;;23.26;41.34;95657.56;10348074;28;2073;-60
2022/05/15 16:41:54;;;;;;;;;;;;;;;23.28;41.35;95671.25;10341671;28;1848;-60
2022/05/15 16:46:55;;;;;;;;;;;;;;;23.27;40.91;95654.59;10356611;28;1793;-58
2022/05/15 16:51:55;;;;;;;;;;;;;;;23.29;41.03;95659.59;10356094;28;1788;-55
2022/05/15 16:56:56;;;;;;;;;;;;;;;23.27;40.70;95661.75;10329955;28;1942;-59
2022/05/15 17:01:57;;;;;;;;;;;;;;;23.25;39.99;95664.69;10353261;28;1839;-57
2022/05/15 17:06:58;;;;;;;;;;;;;;;23.24;40.14;95662.34;10367853;28;1983;-58
2022/05/15 17:11:59;;;;;;;;;;;;;;;23.24;40.41;95659.69;10358376;28;1757;-56
2022/05/15 17:16:59;;;;;;;;;;;;;;;23.24;40.23;95659.69;10356402;28;1910;-61
2022/05/15 17:22:00;;;;;;;;;;;;;;;23.24;39.94;95654.41;10362640;28;1848;-58
2022/05/15 17:27:01;;;;;;;;;;;;;;;23.22;39.96;95653.91;10370943;28;1935;-59
2022/05/15 17:37:38;;;;;;;;;;;;;;;23.22;39.64;95654.72;10277407;28;1896;-58
2022/05/15 17:42:41;;;;;;;;;;;;;;;23.21;39.60;95645.19;10332973;28;1852;-60
2022/05/15 17:47:42;;;;;;;;;;;;;;;23.22;39.77;95653.91;10350409;28;1781;-58
2022/05/15 17:52:42;;;;;;;;;;;;;;;23.21;39.45;95657.63;10345554;28;1938;-58
2022/05/15 17:57:45;;;;;;;;;;;;;;;23.20;39.39;95648.94;10348777;28;1757;-58
2022/05/15 18:02:45;;;;;;;;;;;;;;;23.19;39.84;95644.72;10346383;28;1829;-56
2022/05/15 18:07:49;;;;;;;;;;;;;;;23.19;39.91;95657.13;10335277;28;1849;-61
2022/05/15 18:12:50;;;;;;;;;;;;;;;23.20;39.54;95658.72;10351121;28;1981;-60
2022/05/15 18:17:50;;;;;;;;;;;;;;;23.18;39.40;95656.38;10350840;28;1788;-60
2022/05/15 18:22:57;;;;;;;;;;;;;;;23.14;38.03;95649.31;10346551;28;1951;-57
2022/05/15 18:27:57;;;;;;;;;;;;;;;23.15;39.27;95656.94;10342854;28;2145;-58
2022/05/15 18:32:57;;;;;;;;;;;;;;;23.11;39.65;95663.09;10335960;28;1914;-58
2022/05/15 18:37:58;;;;;;;;;;;;;;;23.08;39.65;95671.63;10369023;28;1852;-57
2022/05/15 18:43:00;;;;;;;;;;;;;;;23.09;39.97;95671.34;10354482;28;1869;-56
2022/05/15 18:48:01;;;;;;;;;;;;;;;23.13;40.32;95671.53;10359205;28;1797;-61
2022/05/15 18:58:20;;;;;;;;;;;;;;;23.26;41.18;95670.78;10351390;28;1880;-58
2022/05/15 19:03:21;;;;;;;;;;;;;;;23.29;41.02;95678.91;10371697;28;1820;-60
2022/05/15 19:08:21;;;;;;;;;;;;;;;23.35;41.48;95676.97;10365590;28;1916;-57
2022/05/15 19:13:22;;;;;;;;;;;;;;;23.35;41.39;95687.53;10363571;28;1971;-59
2022/05/15 19:18:22;;;;;;;;;;;;;;;23.33;41.09;95689.69;10361626;28;1931;-60
2022/05/15 19:23:23;;;;;;;;;;;;;;;23.36;41.45;95691.78;10367565;28;2189;-60
2022/05/15 19:28:24;;;;;;;;;;;;;;;23.36;41.52;95699.72;10334709;28;1785;-60
2022/05/15 19:33:24;;;;;;;;;;;;;;;23.32;41.52;95688.94;10345076;28;1902;-60
2022/05/15 19:38:25;;;;;;;;;;;;;;;23.31;41.80;95691.81;10351380;28;2042;-59
2022/05/15 19:43:26;;;;;;;;;;;;;;;23.33;41.79;95697.63;10362512;28;1749;-61
2022/05/15 19:48:26;;;;;;;;;;;;;;;23.31;42.13;95699.75;10344579;28;1793;-60
2022/05/15 19:53:27;;;;;;;;;;;;;;;23.32;42.25;95704.00;10350552;28;1910;-59
2022/05/15 19:58:27;;;;;;;;;;;;;;;23.30;42.19;95700.84;10360676;28;1535;-57
2022/05/15 20:03:30;;;;;;;;;;;;;;;23.29;42.28;95701.91;10356086;28;1853;-57
2022/05/15 20:13:49;;;;;;;;;;;;;;;23.26;42.44;95703.31;10351812;28;1988;-59
2022/05/15 20:18:50;;;;;;;;;;;;;;;23.25;42.39;95693.00;10373302;28;1586;-55
2022/05/15 20:23:50;;;;;;;;;;;;;;;23.25;42.44;95691.13;10370933;28;1835;-58
2022/05/15 20:28:51;;;;;;;;;;;;;;;23.24;42.54;95692.22;10373354;28;1757;-56
2022/05/15 20:33:51;;;;;;;;;;;;;;;23.24;42.52;95697.53;10363000;28;1921;-59
2022/05/15 20:38:52;;;;;;;;;;;;;;;23.25;42.53;95703.56;10351116;28;1820;-57
2022/05/15 20:43:52;;;;;;;;;;;;;;;23.23;42.78;95706.50;10356182;28;1828;-59
2022/05/15 20:48:53;;;;;;;;;;;;;;;23.23;42.57;95703.88;10352006;28;1757;-61
2022/05/15 20:53:53;;;;;;;;;;;;;;;23.24;42.71;95702.00;10337826;28;1920;-59
2022/05/15 20:58:53;;;;;;;;;;;;;;;23.23;42.78;95698.59;10342986;28;2070;-60
2022/05/15 21:03:54;;;;;;;;;;;;;;;23.23;42.34;95703.06;10338325;28;1953;-58
2022/05/15 21:08:55;;;;;;;;;;;;;;;23.24;42.85;95702.00;10355743;28;1809;-56
2022/05/15 21:13:55;;;;;;;;;;;;;;;23.25;42.54;95703.56;10351379;28;1981;-59
2022/05/15 21:18:55;;;;;;;;;;;;;;;23.23;42.85;95697.78;10345870;28;1843;-57
2022/05/15 21:23:56;;;;;;;;;;;;;;;23.23;42.77;95703.88;10335255;28;1858;-58
2022/05/15 21:28:56;;;;;;;;;;;;;;;23.24;42.91;95700.16;10342527;28;1709;-59
2022/05/15 21:33:57;;;;;;;;;;;;;;;23.24;42.59;95696.72;10337351;28;1910;-61
2022/05/15 21:44:17;;;;;;;;;;;;;;;23.25;42.85;95698.28;10333055;28;1884;-56
2022/05/15 21:49:18;;;;;;;;;;;;;;;23.24;42.77;95704.66;10329658;28;1896;-60
2022/05/15 21:54:18;;;;;;;;;;;;;;;23.25;42.62;95711.50;10336160;28;1910;-57
2022/05/15 22:04:38;;;;;;;;;;;;;;;23.24;42.66;95713.38;10337107;28;1788;-57
2022/05/15 22:09:39;;;;;;;;;;;;;;;23.25;42.81;95719.44;10344193;28;1761;-58
2022/05/15 22:14:39;;;;;;;;;;;;;;;23.25;42.77;95716.78;10337755;28;1977;-58
2022/05/15 22:19:40;;;;;;;;;;;;;;;23.24;42.61;95726.59;10338310;28;1757;-59
2022/05/15 22:24:40;;;;;;;;;;;;;;;23.25;42.36;95720.22;10351582;28;1863;-56
2022/05/15 22:29:41;;;;;;;;;;;;;;;23.25;42.59;95719.44;10355312;28;1824;-57
2022/05/15 22:34:41;;;;;;;;;;;;;;;23.25;42.59;95730.00;10351062;28;1898;-59
2022/05/15 22:39:41;;;;;;;;;;;;;;;23.25;42.63;95730.00;10351963;28;1808;-58
2022/05/15 22:44:42;;;;;;;;;;;;;;;23.25;42.70;95732.66;10348331;28;1698;-59
2022/05/15 22:49:42;;;;;;;;;;;;;;;23.25;42.49;95725.53;10346871;28;1721;-60
2022/05/15 22:54:43;;;;;;;;;;;;;;;23.25;42.53;95730.00;10349732;28;1964;-57
2022/05/15 22:59:43;;;;;;;;;;;;;;;23.26;42.58;95728.97;10336177;28;1797;-57
2022/05/15 23:10:07;;;;;;;;;;;;;;;23.24;42.52;95729.25;10331618;28;1906;-61
2022/05/15 23:15:08;;;;;;;;;;;;;;;23.25;42.52;95730.81;10348305;28;1910;-58
2022/05/15 23:20:08;;;;;;;;;;;;;;;23.25;42.22;95725.53;10336900;28;1805;-57
2022/05/15 23:25:09;;;;;;;;;;;;;;;23.25;42.45;95720.22;10326922;28;1882;-55
2022/05/15 23:30:10;;;;;;;;;;;;;;;23.26;42.49;95719.16;10341425;28;1738;-56
2022/05/15 23:35:10;;;;;;;;;;;;;;;23.25;42.30;95720.22;10355336;28;1910;-59
2022/05/15 23:40:11;;;;;;;;;;;;;;;23.25;42.46;95714.94;10356144;28;1840;-58
2022/05/15 23:45:12;;;;;;;;;;;;;;;23.27;42.13;95709.34;10358696;28;1820;-59
2022/05/15 23:50:12;;;;;;;;;;;;;;;23.24;42.11;95707.31;10343177;28;1875;-60
2022/05/15 23:55:13;;;;;;;;;;;;;;;23.25;42.18;95696.44;10352830;28;1973;-59
